Time;durP1;ratioP1;P1;durP2;ratioP2;P2;SDS_P1;SDS_P2;PMS_P1;PMS_P2;Temp;Humidity;BMP_temperature;BMP_pressure;BME280_temperature;BME280_humidity;BME280_pressure;Samples;Min_cycle;Max_cycle;Signal;HPM_P1;HPM_P2
2022/06/07 00:00:41;;;;;;;10.45;6.88;;;;;;;15.70;100.00;100647.03;5011763;28;20044;-80
2022/06/07 00:03:10;;;;;;;9.93;6.88;;;;;;;15.67;100.00;100648.13;5033742;28;20060;-77
2022/06/07 00:05:40;;;;;;;11.07;7.80;;;;;;;15.66;100.00;100641.13;5015887;28;20044;-78
2022/06/07 00:08:07;;;;;;;9.38;5.70;;;;;;;15.64;100.00;100643.06;5034994;28;20037;-79
2022/06/07 00:10:34;;;;;;;8.27;7.00;;;;;;;15.63;100.00;100644.00;5014460;28;20049;-79
2022/06/07 00:13:03;;;;;;;7.07;6.28;;;;;;;15.63;100.00;100649.31;5032974;28;20053;-79
2022/06/07 00:15:32;;;;;;;8.75;6.47;;;;;;;15.63;100.00;100644.00;5003989;28;20063;-80
2022/06/07 00:18:03;;;;;;;8.25;6.68;;;;;;;15.62;100.00;100647.59;5000003;28;20084;-78
2022/06/07 00:20:33;;;;;;;9.02;6.85;;;;;;;15.53;100.00;100645.69;5029377;28;20405;-80
2022/06/07 00:23:04;;;;;;;10.55;7.15;;;;;;;15.47;100.00;100637.38;5017129;28;20534;-78
2022/06/07 00:25:35;;;;;;;9.00;6.95;;;;;;;15.45;100.00;100637.50;4999586;28;20562;-79
2022/06/07 00:28:04;;;;;;;10.02;7.32;;;;;;;15.43;100.00;100636.78;5032094;28;20052;-79
2022/06/07 00:30:33;;;;;;;9.98;6.45;;;;;;;15.42;100.00;100635.94;5050534;28;20071;-80
2022/06/07 00:33:03;;;;;;;9.73;6.68;;;;;;;15.41;100.00;100638.72;5031830;28;20544;-79
2022/06/07 00:35:34;;;;;;;8.68;6.53;;;;;;;15.41;100.00;100633.41;5049124;28;20097;-78
2022/06/07 00:38:03;;;;;;;8.00;6.22;;;;;;;15.39;100.00;100637.97;5030314;28;20071;-82
2022/06/07 00:40:35;;;;;;;7.50;6.70;;;;;;;15.39;100.00;100640.63;5016401;28;20298;-78
2022/06/07 00:43:02;;;;;;;7.25;6.53;;;;;;;15.36;100.00;100635.59;5049969;28;20147;-79
2022/06/07 00:45:30;;;;;;;7.55;6.38;;;;;;;15.32;100.00;100628.84;5029926;28;20059;-78
2022/06/07 00:47:58;;;;;;;10.38;6.53;;;;;;;15.32;100.00;100634.13;4992585;28;20060;-79
2022/06/07 00:50:44;;;;;;;8.98;6.10;;;;;;;15.28;100.00;100627.38;5032207;28;20067;-76
2022/06/07 00:53:29;;;;;;;9.82;7.28;;;;;;;15.24;100.00;100634.72;5029886;28;20459;-82
2022/06/07 00:55:58;;;;;;;8.55;6.90;;;;;;;15.23;100.00;100627.75;5036522;28;20455;-76
2022/06/07 00:58:29;;;;;;;7.13;6.30;;;;;;;15.22;100.00;100626.06;5014942;28;20120;-79
2022/06/07 01:00:59;;;;;;;9.38;6.78;;;;;;;15.21;100.00;100629.66;5004722;28;20047;-80
2022/06/07 01:03:30;;;;;;;9.38;6.93;;;;;;;15.21;100.00;100624.34;5016358;28;20124;-78
2022/06/07 01:10:43;;;;;;;9.10;7.38;;;;;;;15.20;100.00;100626.16;5028464;28;20127;-83
2022/06/07 01:11:33;;;;;;;7.75;6.40;;;;;;;15.16;100.00;100616.75;5012138;28;20045;-80
2022/06/07 01:14:00;;;;;;;10.27;7.45;;;;;;;15.15;100.00;100616.88;5040382;28;20037;-77
2022/06/07 01:16:27;;;;;;;10.40;6.57;;;;;;;15.16;100.00;100618.56;5025535;28;20086;-77
2022/06/07 01:18:56;;;;;;;7.38;6.63;;;;;;;15.14;100.00;100618.69;5029275;28;20077;-77
2022/06/07 01:21:34;;;;;;;7.50;6.18;;;;;;;15.13;100.00;100614.38;5008535;28;20056;-79
2022/06/07 01:24:05;;;;;;;10.75;6.20;;;;;;;15.12;100.00;100607.34;4997269;28;20083;-80
2022/06/07 01:26:32;;;;;;;6.65;6.00;;;;;;;15.10;100.00;100601.34;5026723;28;20139;-77
2022/06/07 01:28:59;;;;;;;8.32;6.45;;;;;;;15.09;100.00;100602.31;5007086;28;20412;-78
2022/06/07 01:31:26;;;;;;;7.18;6.05;;;;;;;15.07;100.00;100600.72;5026024;28;20496;-78
2022/06/07 01:33:54;;;;;;;8.10;6.03;;;;;;;15.03;100.00;100600.13;5029006;28;20125;-78
2022/06/07 01:36:21;;;;;;;12.02;6.47;;;;;;;15.02;100.00;100597.59;5048532;28;20076;-78
2022/06/07 01:44:26;;;;;;;7.82;6.45;;;;;;;15.00;100.00;100594.22;5014953;28;20056;-78
2022/06/07 01:46:54;;;;;;;7.97;5.97;;;;;;;14.99;100.00;100588.06;5005364;28;20462;-78
2022/06/07 01:49:23;;;;;;;6.82;5.70;;;;;;;14.97;100.00;100587.34;5047182;28;20384;-78
2022/06/07 01:51:52;;;;;;;6.13;5.30;;;;;;;14.96;100.00;100592.78;5027862;28;20057;-80
2022/06/07 01:54:20;;;;;;;7.85;6.28;;;;;;;14.91;100.00;100593.97;5028345;28;20053;-79
2022/06/07 01:56:49;;;;;;;10.32;5.88;;;;;;;14.87;100.00;100597.81;5009189;28;20117;-79
2022/06/07 01:59:18;;;;;;;9.82;7.20;;;;;;;14.85;100.00;100585.63;5031932;28;20033;-78
2022/06/07 02:01:46;;;;;;;7.55;6.78;;;;;;;14.82;100.00;100593.84;5027655;28;20612;-78
2022/06/07 02:04:14;;;;;;;7.72;6.97;;;;;;;14.80;100.00;100595.75;5017195;28;20053;-82
2022/06/07 02:06:41;;;;;;;11.38;7.40;;;;;;;14.76;100.00;100594.31;4990210;28;20071;-78
2022/06/07 02:09:09;;;;;;;8.57;6.80;;;;;;;14.75;100.00;100595.28;5031644;28;20056;-79
2022/06/07 02:11:37;;;;;;;10.63;7.32;;;;;;;14.73;100.00;100594.56;5027099;28;20131;-77
2022/06/07 02:14:06;;;;;;;9.00;6.65;;;;;;;14.71;100.00;100588.50;5011724;28;20055;-80
2022/06/07 02:16:33;;;;;;;10.13;6.70;;;;;;;14.68;100.00;100587.81;5017485;28;20076;-80
2022/06/07 02:19:02;;;;;;;8.85;6.90;;;;;;;14.68;100.00;100586.97;4993329;28;20042;-76
2022/06/07 02:21:30;;;;;;;9.95;6.93;;;;;;;14.68;100.00;100585.16;5024462;28;20132;-79
2022/06/07 02:23:57;;;;;;;8.15;6.85;;;;;;;14.69;100.00;100575.41;5011725;28;20049;-78
2022/06/07 02:26:30;;;;;;;7.70;6.90;;;;;;;14.68;100.00;100571.06;5027385;28;20124;-78
2022/06/07 02:29:01;;;;;;;9.77;7.13;;;;;;;14.67;100.00;100580.78;5028082;28;20136;-80
2022/06/07 02:31:30;;;;;;;9.65;6.65;;;;;;;14.65;100.00;100574.78;5012678;28;20208;-78
2022/06/07 02:33:59;;;;;;;7.40;6.57;;;;;;;14.63;100.00;100571.41;5030177;28;20171;-78
2022/06/07 02:36:27;;;;;;;7.85;7.05;;;;;;;14.61;100.00;100560.06;5013196;28;20423;-79
2022/06/07 02:38:54;;;;;;;10.40;7.05;;;;;;;14.62;100.00;100569.69;5026736;28;20045;-77
2022/06/07 02:41:23;;;;;;;8.23;6.97;;;;;;;14.63;100.00;100563.47;5030311;28;20068;-80
2022/06/07 02:43:50;;;;;;;9.98;7.57;;;;;;;14.65;100.00;100569.47;5028278;28;20088;-77
2022/06/07 02:46:17;;;;;;;11.57;7.13;;;;;;;14.62;100.00;100572.34;5029919;28;21067;-77
2022/06/07 02:48:45;;;;;;;7.68;6.55;;;;;;;14.59;100.00;100564.66;5030670;28;20048;-77
2022/06/07 02:51:12;;;;;;;8.02;7.13;;;;;;;14.58;100.00;100576.19;5031023;28;20051;-77
2022/06/07 02:53:39;;;;;;;7.93;6.63;;;;;;;14.57;100.00;100585.13;5050055;28;20053;-77
2022/06/07 02:56:07;;;;;;;9.32;7.43;;;;;;;14.53;100.00;100596.91;5046656;28;20376;-78
2022/06/07 02:58:34;;;;;;;11.38;8.02;;;;;;;14.50;100.00;100590.97;5014543;28;20052;-76
2022/06/07 03:01:01;;;;;;;9.00;6.90;;;;;;;14.48;100.00;100588.47;5029873;28;20051;-79
2022/06/07 03:03:29;;;;;;;8.90;7.63;;;;;;;14.47;100.00;100594.69;5015498;28;20041;-82
2022/06/07 03:05:56;;;;;;;14.20;8.93;;;;;;;14.47;100.00;100585.91;5045360;28;20061;-78
2022/06/07 03:08:24;;;;;;;10.23;7.97;;;;;;;14.47;100.00;100578.81;5048671;28;20059;-81
2022/06/07 03:10:51;;;;;;;8.95;7.75;;;;;;;14.50;100.00;100590.97;5013439;28;20076;-79
2022/06/07 03:13:18;;;;;;;8.30;7.35;;;;;;;14.50;100.00;100583.91;5010479;28;20121;-79
2022/06/07 03:15:47;;;;;;;9.52;8.50;;;;;;;14.51;100.00;100592.69;5008204;28;20041;-79
2022/06/07 03:18:14;;;;;;;8.77;7.45;;;;;;;14.52;100.00;100586.44;5015674;28;20056;-79
2022/06/07 03:20:43;;;;;;;8.65;7.78;;;;;;;14.56;100.00;100587.88;5013578;28;20053;-81
2022/06/07 03:23:10;;;;;;;13.77;8.15;;;;;;;14.60;100.00;100594.66;5031895;28;20057;-78
2022/06/07 03:25:38;;;;;;;8.02;7.18;;;;;;;14.60;100.00;100587.53;5029948;28;20055;-80
2022/06/07 03:28:05;;;;;;;12.93;7.95;;;;;;;14.65;100.00;100593.31;4997962;28;20055;-79
2022/06/07 03:30:34;;;;;;;9.65;7.13;;;;;;;14.70;100.00;100577.06;4994420;28;20049;-78
2022/06/07 03:33:01;;;;;;;9.05;7.50;;;;;;;14.77;100.00;100586.25;5016017;28;20619;-80
2022/06/07 03:35:29;;;;;;;11.60;7.10;;;;;;;14.86;100.00;100574.06;4997073;28;20056;-79
2022/06/07 03:37:56;;;;;;;6.93;6.22;;;;;;;14.93;100.00;100570.84;5047857;28;20075;-78
2022/06/07 03:43:10;;;;;;;8.23;6.28;;;;;;;15.08;100.00;100579.38;5014713;28;20480;-78
2022/06/07 03:45:38;;;;;;;7.88;6.22;;;;;;;15.14;100.00;100591.34;5028322;28;20515;-77
2022/06/07 03:48:06;;;;;;;8.05;6.90;;;;;;;15.17;100.00;100588.44;5029964;28;20065;-81
2022/06/07 03:50:33;;;;;;;7.50;6.65;;;;;;;15.18;100.00;100590.13;4995724;28;20055;-78
2022/06/07 03:53:00;;;;;;;8.20;6.55;;;;;;;15.16;100.00;100590.25;5034152;28;20047;-81
2022/06/07 03:55:28;;;;;;;7.93;6.10;;;;;;;15.20;100.00;100597.00;5048070;28;20049;-77
2022/06/07 03:57:56;;;;;;;5.65;4.68;;;;;;;15.22;98.64;100590.72;5030371;28;20136;-77
2022/06/07 04:00:23;;;;;;;5.38;4.80;;;;;;;15.28;98.21;100593.75;5029210;28;20037;-79
2022/06/07 04:02:50;;;;;;;8.77;4.40;;;;;;;15.24;95.62;100589.63;5014708;28;20048;-77
2022/06/07 04:05:18;;;;;;;8.93;4.85;;;;;;;15.22;94.58;100594.25;5011175;28;20041;-78
2022/06/07 04:10:31;;;;;;;4.70;3.70;;;;;;;15.17;93.24;100596.38;5047982;28;20048;-79
2022/06/07 04:12:59;;;;;;;5.72;3.42;;;;;;;15.15;92.63;100598.31;5030398;28;20312;-78
2022/06/07 04:15:26;;;;;;;4.32;3.33;;;;;;;15.18;92.38;100598.09;5027327;28;20772;-78
2022/06/07 04:17:53;;;;;;;7.40;3.85;;;;;;;15.19;91.68;100595.31;5030209;28;20059;-79
2022/06/07 04:20:21;;;;;;;7.32;3.92;;;;;;;15.26;91.26;100595.66;5011498;28;20059;-77
2022/06/07 04:22:48;;;;;;;5.35;3.17;;;;;;;15.28;91.05;100598.22;5013502;28;20232;-78
2022/06/07 04:25:15;;;;;;;5.22;3.75;;;;;;;15.30;90.74;100601.56;5027500;28;20041;-79
2022/06/07 04:27:43;;;;;;;7.60;2.95;;;;;;;15.33;89.79;100598.69;5025974;28;20044;-80
2022/06/07 04:30:11;;;;;;;6.45;3.15;;;;;;;15.36;89.85;100593.16;5026971;28;20144;-79
2022/06/07 04:32:39;;;;;;;5.28;3.17;;;;;;;15.39;89.13;100592.88;5011394;28;20431;-78
2022/06/07 04:35:07;;;;;;;4.70;2.90;;;;;;;15.43;88.83;100594.31;4996044;28;20159;-77
2022/06/07 04:37:34;;;;;;;4.85;3.13;;;;;;;15.45;88.09;100606.50;5030297;28;20049;-78
2022/06/07 04:40:05;;;;;;;3.47;2.75;;;;;;;15.48;87.68;100604.56;5027518;28;20072;-78
2022/06/07 04:42:33;;;;;;;5.50;2.80;;;;;;;15.43;86.54;100603.13;5014433;28;20117;-80
2022/06/07 04:45:01;;;;;;;5.40;3.03;;;;;;;15.49;86.31;100603.59;5024419;28;20045;-79
2022/06/07 04:47:28;;;;;;;3.83;2.92;;;;;;;15.51;85.51;100588.41;5013277;28;20068;-78
2022/06/07 04:49:55;;;;;;;4.72;2.80;;;;;;;15.49;85.18;100595.63;5008640;28;20049;-77
2022/06/07 04:52:22;;;;;;;8.00;2.40;;;;;;;15.52;84.92;100598.06;5029758;28;20105;-80
2022/06/07 04:54:50;;;;;;;3.22;2.55;;;;;;;15.56;85.11;100605.66;5010947;28;20053;-79
2022/06/07 04:57:18;;;;;;;5.95;2.95;;;;;;;15.62;85.23;100591.88;5027124;28;20061;-79
2022/06/07 04:59:45;;;;;;;3.53;2.58;;;;;;;15.68;84.89;100598.56;5026409;28;20045;-78
2022/06/07 05:02:13;;;;;;;4.15;2.80;;;;;;;15.80;84.89;100602.00;5047670;28;20053;-77
2022/06/07 05:04:45;;;;;;;5.43;2.58;;;;;;;15.87;84.24;100608.53;5045402;28;20041;-77
2022/06/07 05:07:13;;;;;;;5.13;2.55;;;;;;;15.90;82.31;100605.63;5013215;28;20041;-78
2022/06/07 05:09:40;;;;;;;3.88;2.30;;;;;;;15.84;81.35;100611.41;5044461;28;20068;-79
2022/06/07 05:12:08;;;;;;;6.40;2.80;;;;;;;15.84;81.49;100600.78;5014136;28;20496;-78
2022/06/07 05:14:36;;;;;;;3.45;2.05;;;;;;;15.86;81.80;100612.16;5012880;28;20051;-81
2022/06/07 05:17:03;;;;;;;3.78;2.20;;;;;;;15.87;81.58;100606.69;5012140;28;20384;-80
2022/06/07 05:19:33;;;;;;;3.30;2.30;;;;;;;15.89;81.54;100607.41;5026801;28;20053;-81
2022/06/07 05:22:02;;;;;;;4.32;3.10;;;;;;;15.92;81.58;100599.19;5013796;28;20075;-79
2022/06/07 05:24:29;;;;;;;4.75;3.35;;;;;;;16.04;81.49;100597.38;5016272;28;20071;-78
2022/06/07 05:26:59;;;;;;;5.07;2.53;;;;;;;16.11;80.18;100597.69;5012721;28;20438;-80
2022/06/07 05:29:51;;;;;;;5.78;2.35;;;;;;;16.23;80.47;100607.31;5013753;28;20132;-78
2022/06/07 05:32:19;;;;;;;7.22;2.47;;;;;;;16.31;79.74;100606.69;5009021;28;20139;-78
2022/06/07 05:34:46;;;;;;;6.35;2.63;;;;;;;16.36;78.81;100609.78;5046357;28;20049;-79
2022/06/07 05:37:18;;;;;;;4.75;2.65;;;;;;;16.45;78.60;100609.03;5010018;28;20069;-78
2022/06/07 05:39:46;;;;;;;8.50;2.42;;;;;;;16.51;76.57;100615.63;5010023;28;20105;-80
2022/06/07 05:42:15;;;;;;;6.07;2.63;;;;;;;16.60;76.60;100614.84;5013337;28;20512;-78
2022/06/07 05:44:43;;;;;;;4.30;2.20;;;;;;;16.53;75.51;100624.34;5012302;28;20040;-80
2022/06/07 05:47:10;;;;;;;5.60;2.10;;;;;;;16.51;75.04;100618.28;5046061;28;20049;-80
2022/06/07 05:49:38;;;;;;;4.40;2.30;;;;;;;16.60;75.23;100630.81;5040060;28;20045;-80
2022/06/07 05:52:07;;;;;;;7.97;2.33;;;;;;;16.73;73.19;100625.34;5012901;28;20053;-79
2022/06/07 05:54:35;;;;;;;3.25;2.10;;;;;;;16.91;73.35;100626.44;5046794;28;20057;-83
2022/06/07 05:57:02;;;;;;;9.60;2.10;;;;;;;17.00;71.98;100625.63;5009539;28;20049;-78
2022/06/07 05:59:30;;;;;;;3.58;2.22;;;;;;;17.23;72.13;100628.13;5011085;28;20056;-78
2022/06/07 06:01:59;;;;;;;4.70;2.30;;;;;;;17.44;70.67;100626.25;5043597;28;20369;-81
2022/06/07 06:04:26;;;;;;;5.18;2.10;;;;;;;17.48;67.33;100627.69;5025999;28;20072;-79
2022/06/07 06:06:55;;;;;;;4.75;1.70;;;;;;;17.49;66.34;100626.69;5013321;28;20041;-78
2022/06/07 06:12:08;;;;;;;;;;;;;;;17.67;66.75;100638.38;5018937;28;20059;-80
2022/06/07 06:14:36;;;;;;;3.95;1.88;;;;;;;17.81;66.28;100639.00;5018384;28;19921;-78
2022/06/07 06:17:04;;;;;;;6.60;2.30;;;;;;;17.89;65.68;100640.00;5031228;28;20049;-80
2022/06/07 06:19:31;;;;;;;7.07;2.00;;;;;;;17.91;66.02;100640.69;5030028;28;20041;-79
2022/06/07 06:21:58;;;;;;;8.48;1.80;;;;;;;18.07;65.73;100637.53;5031757;28;20056;-79
2022/06/07 06:24:26;;;;;;;5.57;2.17;;;;;;;18.21;63.83;100634.44;5016616;28;20115;-78
2022/06/07 06:26:54;;;;;;;2.75;2.05;;;;;;;18.34;61.93;100633.34;5003314;28;20061;-78
2022/06/07 06:29:23;;;;;;;4.72;2.10;;;;;;;18.41;60.38;100631.78;5033012;28;20152;-78
2022/06/07 06:31:51;;;;;;;5.30;1.80;;;;;;;18.43;59.76;100632.50;5023439;28;20068;-78
2022/06/07 06:34:19;;;;;;;5.25;1.70;;;;;;;18.43;59.42;100641.31;4998618;28;20388;-82
2022/06/07 06:36:47;;;;;;;5.68;1.95;;;;;;;18.58;59.48;100635.56;5019338;28;20500;-79
2022/06/07 06:39:19;;;;;;;6.70;1.80;;;;;;;18.76;58.59;100638.38;5016351;28;20068;-79
2022/06/07 06:41:47;;;;;;;4.30;2.35;;;;;;;18.93;58.85;100648.31;5015027;28;20060;-77
2022/06/07 06:44:14;;;;;;;3.70;1.75;;;;;;;19.01;57.30;100642.28;5032465;28;20049;-80
2022/06/07 06:46:45;;;;;;;5.88;2.17;;;;;;;19.09;57.72;100645.91;5013854;28;20460;-80
2022/06/07 06:49:14;;;;;;;6.20;1.70;;;;;;;19.31;57.64;100643.84;4998856;28;20484;-79
2022/06/07 06:51:42;;;;;;;3.88;1.90;;;;;;;19.58;57.08;100640.34;5016716;28;20499;-81
2022/06/07 06:54:13;;;;;;;7.35;1.88;;;;;;;19.82;55.30;100637.19;5032510;28;20139;-81
2022/06/07 06:56:40;;;;;;;5.13;2.08;;;;;;;19.93;54.81;100639.63;5009675;28;20512;-79
2022/06/07 06:59:08;;;;;;;2.33;1.50;;;;;;;19.82;54.25;100637.19;5031612;28;20041;-78
2022/06/07 07:01:38;;;;;;;3.13;1.80;;;;;;;19.86;53.99;100643.91;5014589;28;20452;-78
2022/06/07 07:04:09;;;;;;;6.88;1.67;;;;;;;19.89;52.29;100648.94;5030348;28;20124;-79
2022/06/07 07:06:37;;;;;;;4.72;1.90;;;;;;;19.94;53.77;100646.66;5030211;28;20431;-79
2022/06/07 07:09:08;;;;;;;4.03;1.42;;;;;;;20.03;52.94;100637.72;5032339;28;20041;-78
2022/06/07 07:11:39;;;;;;;4.20;1.80;;;;;;;20.19;53.41;100640.56;5030329;28;20064;-79
2022/06/07 07:14:09;;;;;;;4.10;1.42;;;;;;;20.37;52.40;100637.06;5049748;28;20099;-78
2022/06/07 07:16:42;;;;;;;4.43;1.60;;;;;;;20.13;51.57;100637.69;4997023;28;20045;-80
2022/06/07 07:19:11;;;;;;;2.65;1.55;;;;;;;20.06;50.79;100636.59;5012892;28;20441;-78
2022/06/07 07:21:41;;;;;;;5.50;1.52;;;;;;;20.28;51.03;100640.66;4995898;28;20507;-78
2022/06/07 07:24:12;;;;;;;5.20;1.60;;;;;;;20.55;51.31;100645.09;4997547;28;20072;-80
2022/06/07 07:26:42;;;;;;;3.63;1.75;;;;;;;20.53;49.97;100636.38;5047139;28;20144;-79
2022/06/07 07:29:11;;;;;;;6.07;1.40;;;;;;;20.46;48.88;100641.50;5003965;28;20045;-77
2022/06/07 07:31:39;;;;;;;5.18;1.27;;;;;;;20.34;49.21;100640.03;4997479;28;20057;-79
2022/06/07 07:34:08;;;;;;;5.30;1.40;;;;;;;20.19;48.70;100637.06;5048109;28;20147;-81
2022/06/07 07:36:41;;;;;;;4.40;1.10;;;;;;;20.21;49.57;100627.88;5030036;28;20312;-79
2022/06/07 07:39:09;;;;;;;6.45;1.55;;;;;;;20.33;49.39;100633.00;5011282;28;20128;-80
2022/06/07 07:41:38;;;;;;;9.98;1.80;;;;;;;20.19;48.92;100629.03;5030395;28;20146;-78
2022/06/07 07:44:11;;;;;;;4.93;1.30;;;;;;;20.30;48.81;100633.31;5012443;28;20365;-79
2022/06/07 07:46:40;;;;;;;2.92;1.40;;;;;;;20.53;48.41;100631.03;5029838;28;20144;-79
2022/06/07 07:49:08;;;;;;;4.47;1.20;;;;;;;20.76;48.30;100636.72;5029217;28;20049;-78
2022/06/07 07:51:37;;;;;;;2.92;1.40;;;;;;;20.97;48.75;100631.84;5024245;28;20053;-78
2022/06/07 07:54:06;;;;;;;2.45;1.10;;;;;;;21.15;48.35;100629.13;5030863;28;20465;-78
2022/06/07 07:56:33;;;;;;;5.95;1.20;;;;;;;21.27;46.49;100632.38;5012765;28;20048;-80
2022/06/07 07:59:01;;;;;;;2.20;1.15;;;;;;;21.30;46.21;100627.56;5029467;28;20572;-79
2022/06/07 08:01:29;;;;;;;4.97;1.73;;;;;;;21.22;46.27;100631.00;5003539;28;20045;-82
2022/06/07 08:04:00;;;;;;;2.97;1.13;;;;;;;21.49;45.92;100629.16;5012386;28;20140;-79
2022/06/07 08:06:29;;;;;;;3.15;1.35;;;;;;;21.56;45.77;100635.53;4996270;28;20049;-78
2022/06/07 08:09:00;;;;;;;1.63;1.05;;;;;;;21.68;44.11;100623.53;5015261;28;20087;-80
2022/06/07 08:11:34;;;;;;;4.63;1.25;;;;;;;21.94;44.55;100627.97;5010124;28;20042;-76
2022/06/07 08:14:02;;;;;;;2.83;1.30;;;;;;;22.12;44.63;100623.34;5030867;28;20106;-79
2022/06/07 08:16:31;;;;;;;6.50;2.05;;;;;;;22.15;44.48;100620.31;5035108;28;20056;-77
2022/06/07 08:19:08;;;;;;;5.35;1.42;;;;;;;22.04;44.09;100617.94;5017382;28;20080;-80
2022/06/07 08:21:37;;;;;;;3.58;1.35;;;;;;;21.89;41.88;100622.28;5012947;28;20055;-77
2022/06/07 08:24:04;;;;;;;2.92;1.00;;;;;;;21.66;41.38;100620.19;5020095;28;20053;-77
2022/06/07 08:26:32;;;;;;;3.92;0.88;;;;;;;21.82;41.78;100626.59;5010955;28;20041;-78
2022/06/07 08:28:59;;;;;;;2.67;1.10;;;;;;;22.08;42.53;100619.28;5012958;28;20433;-78
2022/06/07 08:31:29;;;;;;;2.25;1.30;;;;;;;22.36;41.93;100617.16;5026037;28;20049;-77
2022/06/07 08:39:29;;;;;;;2.30;1.00;;;;;;;22.52;40.99;100613.66;5031200;28;20049;-78
2022/06/07 08:42:03;;;;;;;3.00;1.45;;;;;;;22.60;41.64;100612.78;5027937;28;20049;-79
2022/06/07 08:44:40;;;;;;;5.43;1.20;;;;;;;22.77;41.55;100605.56;4995910;28;20052;-80
2022/06/07 08:47:16;;;;;;;3.75;1.17;;;;;;;22.92;41.08;100598.53;5008373;28;20041;-80
2022/06/07 08:49:43;;;;;;;6.32;1.10;;;;;;;23.05;41.10;100598.81;5046577;28;20040;-78
2022/06/07 08:52:23;;;;;;;4.35;1.20;;;;;;;23.03;40.65;100591.97;5014415;28;20154;-79
2022/06/07 08:54:55;;;;;;;2.13;1.23;;;;;;;22.78;40.93;100605.38;5037695;28;20528;-80
2022/06/07 08:57:36;;;;;;;1.95;1.08;;;;;;;22.51;41.62;100598.53;5011376;28;20057;-80
2022/06/07 09:00:14;;;;;;;1.73;0.95;;;;;;;22.37;41.47;100592.00;5021678;28;20041;-79
2022/06/07 09:02:47;;;;;;;3.72;0.90;;;;;;;22.29;42.31;100585.81;4997575;28;20140;-78
2022/06/07 09:05:16;;;;;;;7.65;0.82;;;;;;;22.46;42.02;100592.84;5022699;28;20076;-78
2022/06/07 09:07:46;;;;;;;4.28;1.40;;;;;;;22.22;42.06;100588.34;5044898;28;20139;-82
2022/06/07 09:13:07;;;;;;;4.30;1.27;;;;;;;22.52;42.17;100578.78;5016763;28;20139;-78
2022/06/07 09:16:00;;;;;;;3.28;1.05;;;;;;;22.59;41.13;100576.25;5010856;28;20064;-78
2022/06/07 09:18:30;;;;;;;1.80;1.10;;;;;;;22.72;41.04;100573.88;5012530;28;20053;-80
2022/06/07 09:21:08;;;;;;;4.90;1.52;;;;;;;22.90;41.08;100571.03;5011998;28;20350;-80
2022/06/07 09:23:47;;;;;;;1.73;0.73;;;;;;;23.17;40.46;100564.38;5001549;28;20470;-78
2022/06/07 09:26:18;;;;;;;2.42;1.20;;;;;;;23.12;40.91;100564.09;5028820;28;20060;-79
2022/06/07 09:28:50;;;;;;;;;;;;;;;23.03;40.56;100560.59;5028733;28;20041;-79
2022/06/07 09:31:20;;;;;;;4.35;1.00;;;;;;;23.00;40.77;100560.91;5027559;28;19921;-79
2022/06/07 09:33:57;;;;;;;2.20;0.90;;;;;;;23.16;40.61;100552.81;4996272;28;20053;-78
2022/06/07 09:36:24;;;;;;;3.20;1.00;;;;;;;23.09;40.37;100559.88;5027890;28;20059;-78
2022/06/07 09:38:55;;;;;;;2.22;0.93;;;;;;;23.02;40.83;100553.53;5028736;28;20045;-79
2022/06/07 09:41:45;;;;;;;3.05;1.00;;;;;;;23.15;41.39;100553.84;5008233;28;20045;-78
2022/06/07 09:44:32;;;;;;;2.00;1.10;;;;;;;23.34;40.86;100551.75;5010626;28;20067;-80
2022/06/07 09:47:15;;;;;;;2.40;1.13;;;;;;;23.55;40.85;100540.34;5035532;28;20057;-79
2022/06/07 09:49:53;;;;;;;1.85;1.30;;;;;;;23.51;39.46;100542.59;5010124;28;20140;-79
2022/06/07 09:52:23;;;;;;;2.60;0.90;;;;;;;23.41;40.40;100531.19;5013772;28;20535;-78
2022/06/07 09:54:57;;;;;;;5.00;1.27;;;;;;;23.85;40.40;100527.94;5044586;28;20055;-80
2022/06/07 09:57:30;;;;;;;2.78;1.10;;;;;;;24.09;39.79;100527.78;5028813;28;20056;-76
2022/06/07 10:00:17;;;;;;;4.38;1.10;;;;;;;24.41;39.72;100524.00;5027322;28;20231;-78
2022/06/07 10:03:18;;;;;;;2.55;1.00;;;;;;;24.62;39.31;100522.41;5029240;28;20077;-80
2022/06/07 10:05:53;;;;;;;1.90;0.82;;;;;;;24.53;38.91;100518.13;5026362;28;20406;-78
2022/06/07 10:08:36;;;;;;;2.65;1.20;;;;;;;24.44;39.23;100517.38;5028656;28;20468;-79
2022/06/07 10:11:38;;;;;;;2.40;1.20;;;;;;;24.32;39.56;100514.28;5025003;28;20476;-80
2022/06/07 10:14:35;;;;;;;1.98;1.00;;;;;;;24.36;40.06;100514.72;4979095;28;20051;-78
2022/06/07 10:17:26;;;;;;;4.88;1.38;;;;;;;24.28;39.84;100522.91;5022828;28;20040;-79
2022/06/07 10:20:03;;;;;;;4.55;1.50;;;;;;;24.12;39.71;100522.00;5025264;28;20542;-78
2022/06/07 10:22:39;;;;;;;4.07;1.63;;;;;;;24.12;40.44;100510.41;5012847;28;20033;-78
2022/06/07 10:25:15;;;;;;;3.35;1.23;;;;;;;23.85;40.15;100507.28;5025036;28;20071;-79
2022/06/07 10:27:45;;;;;;;9.05;1.40;;;;;;;23.78;40.60;100505.50;4994824;28;20335;-81
2022/06/07 10:30:31;;;;;;;5.35;1.30;;;;;;;23.70;40.90;100501.84;5041124;28;20466;-79
2022/06/07 10:33:08;;;;;;;4.18;1.20;;;;;;;24.14;39.78;100501.16;5009809;28;20582;-82
2022/06/07 10:36:00;;;;;;;3.60;1.15;;;;;;;24.54;38.95;100504.50;5027308;28;20510;-79
2022/06/07 10:38:48;;;;;;;3.20;1.70;;;;;;;25.02;38.33;100505.78;4992909;28;20045;-79
2022/06/07 10:41:36;;;;;;;3.58;1.02;;;;;;;25.26;38.17;100503.84;4995470;28;20422;-79
2022/06/07 10:44:48;;;;;;;5.88;1.90;;;;;;;25.06;37.25;100487.41;5023084;28;20112;-79
2022/06/07 10:47:24;;;;;;;5.40;1.33;;;;;;;24.79;38.75;100498.84;4985217;28;20048;-79
2022/06/07 10:49:58;;;;;;;3.97;1.40;;;;;;;24.48;38.20;100492.63;5013241;28;20408;-80
2022/06/07 10:52:31;;;;;;;3.45;1.50;;;;;;;24.22;38.10;100498.38;4997757;28;20049;-80
2022/06/07 10:55:08;;;;;;;2.22;1.00;;;;;;;23.96;38.19;100506.88;5031234;28;20484;-77
2022/06/07 10:57:57;;;;;;;2.97;1.25;;;;;;;23.80;38.86;100498.91;5048662;28;20089;-79
2022/06/07 11:00:39;;;;;;;4.00;1.23;;;;;;;24.05;38.85;100482.59;5045695;28;20041;-79
2022/06/07 11:03:34;;;;;;;2.10;1.17;;;;;;;24.23;37.92;100481.25;5000726;28;20041;-79
2022/06/07 11:09:22;;;;;;;3.17;1.00;;;;;;;23.65;38.32;100485.41;5031333;28;20080;-79
2022/06/07 11:12:02;;;;;;;2.30;1.25;;;;;;;23.60;38.92;100498.53;5025612;28;20037;-79
2022/06/07 11:14:51;;;;;;;4.60;1.17;;;;;;;23.49;39.32;100486.31;4996730;28;20515;-78
2022/06/07 11:17:37;;;;;;;4.10;1.20;;;;;;;23.41;39.98;100482.84;4998955;28;20044;-80
2022/06/07 11:20:21;;;;;;;3.20;1.45;;;;;;;23.27;40.29;100475.53;5041996;28;20049;-79
2022/06/07 11:23:11;;;;;;;6.57;1.27;;;;;;;23.29;40.61;100474.38;5031859;28;20443;-78
2022/06/07 11:25:57;;;;;;;2.67;1.20;;;;;;;23.30;40.17;100484.09;5031094;28;20049;-77
2022/06/07 11:28:33;;;;;;;4.88;1.30;;;;;;;23.20;39.96;100480.81;5013952;28;20049;-80
2022/06/07 11:31:23;;;;;;;10.98;1.10;;;;;;;23.03;39.54;100484.56;5012427;28;20098;-79
2022/06/07 11:33:50;;;;;;;3.00;1.23;;;;;;;22.78;39.78;100479.25;5028624;28;20534;-79
2022/06/07 11:36:24;;;;;;;3.55;1.00;;;;;;;22.85;40.17;100487.47;5047845;28;20060;-77
2022/06/07 11:38:57;;;;;;;4.43;0.98;;;;;;;22.95;40.06;100496.16;5010512;28;20049;-79
2022/06/07 11:41:39;;;;;;;10.15;1.30;;;;;;;22.75;40.25;100493.03;5047902;28;20049;-79
2022/06/07 11:44:14;;;;;;;6.20;1.23;;;;;;;22.63;40.94;100489.88;5029336;28;20401;-78
2022/06/07 11:46:50;;;;;;;2.67;1.10;;;;;;;22.78;39.90;100470.38;5026304;28;20053;-80
2022/06/07 11:49:18;;;;;;;4.55;1.15;;;;;;;22.95;40.59;100478.22;5028524;28;20053;-79
2022/06/07 11:52:19;;;;;;;3.80;1.58;;;;;;;22.95;40.19;100488.13;5048299;28;20049;-79
2022/06/07 11:54:55;;;;;;;2.67;1.10;;;;;;;22.97;40.45;100480.75;5015794;28;20041;-81
2022/06/07 11:58:00;;;;;;;5.90;1.15;;;;;;;22.86;40.33;100483.75;5034205;28;20053;-80
2022/06/07 12:00:30;;;;;;;2.22;1.10;;;;;;;22.77;40.32;100479.44;5029285;28;20253;-79
2022/06/07 12:02:57;;;;;;;1.70;0.90;;;;;;;22.80;40.88;100479.94;5013262;28;20048;-79
2022/06/07 12:05:45;;;;;;;3.40;1.20;;;;;;;22.82;40.50;100483.25;5043632;28;20063;-77
2022/06/07 12:08:26;;;;;;;4.15;1.23;;;;;;;22.97;40.22;100478.06;5012136;28;20057;-79
2022/06/07 12:11:23;;;;;;;5.10;1.35;;;;;;;23.15;40.28;100477.81;5026430;28;20377;-78